createdAt,value
2018-12-08T00:02:19.640Z,5.70
2018-12-08T00:07:22.849Z,5.60
2018-12-08T00:12:26.088Z,6.50
2018-12-08T00:17:29.341Z,6.20
2018-12-08T00:22:32.591Z,5.33
2018-12-08T00:27:35.859Z,6.13
2018-12-08T00:32:39.046Z,5.10
2018-12-08T00:37:42.207Z,5.70
2018-12-08T00:42:45.433Z,5.47
2018-12-08T00:47:48.661Z,5.83
2018-12-08T00:52:52.246Z,5.50
2018-12-08T00:57:55.649Z,5.40
2018-12-08T01:02:58.851Z,5.77
2018-12-08T01:08:02.171Z,5.43
2018-12-08T01:13:05.383Z,5.00
2018-12-08T01:18:08.581Z,5.20
2018-12-08T01:23:11.778Z,5.60
2018-12-08T01:28:15.077Z,4.70
2018-12-08T01:33:18.263Z,5.83
2018-12-08T01:38:21.504Z,4.63
2018-12-08T01:43:24.717Z,5.50
2018-12-08T01:48:27.894Z,5.53
2018-12-08T01:53:31.108Z,4.70
2018-12-08T01:58:34.583Z,5.80
2018-12-08T02:03:37.755Z,4.83
2018-12-08T02:08:40.961Z,5.13
2018-12-08T02:13:44.139Z,5.47
2018-12-08T02:18:47.333Z,4.73
2018-12-08T02:23:50.533Z,4.93
2018-12-08T02:28:53.736Z,5.50
2018-12-08T02:33:56.917Z,5.47
2018-12-08T02:39:00.127Z,4.53
2018-12-08T02:44:03.303Z,4.00
2018-12-08T02:49:06.491Z,4.10
2018-12-08T02:54:09.678Z,4.90
2018-12-08T02:59:13.023Z,4.30
2018-12-08T03:04:16.235Z,5.27
2018-12-08T03:09:19.450Z,5.10
2018-12-08T03:14:22.598Z,4.20
2018-12-08T03:19:25.825Z,4.37
2018-12-08T03:24:29.033Z,4.87
2018-12-08T03:29:32.217Z,4.40
2018-12-08T03:34:35.418Z,4.33
2018-12-08T03:39:38.625Z,4.87
2018-12-08T03:44:42.125Z,4.40
2018-12-08T03:49:45.472Z,4.50
2018-12-08T03:54:48.675Z,4.53
2018-12-08T03:59:51.862Z,4.17
2018-12-08T04:04:55.080Z,4.40
2018-12-08T04:09:58.334Z,4.90
2018-12-08T04:15:01.750Z,3.73
2018-12-08T04:20:05.173Z,4.47
2018-12-08T04:25:08.384Z,4.60
2018-12-08T04:30:11.789Z,4.50
2018-12-08T04:35:14.959Z,4.40
2018-12-08T04:40:18.189Z,4.07
2018-12-08T04:45:21.347Z,4.43
2018-12-08T04:50:24.511Z,4.40
2018-12-08T04:55:27.820Z,4.20
2018-12-08T05:00:31.010Z,4.00
2018-12-08T05:05:34.194Z,3.43
2018-12-08T05:10:37.534Z,3.80
2018-12-08T05:15:40.685Z,3.90
2018-12-08T05:20:43.953Z,3.60
2018-12-08T05:25:47.201Z,4.20
2018-12-08T05:30:50.923Z,3.57
2018-12-08T05:35:54.376Z,3.67
2018-12-08T05:40:57.572Z,3.60
2018-12-08T05:46:00.907Z,3.70
2018-12-08T05:51:04.166Z,3.50
2018-12-08T05:56:07.374Z,3.50
2018-12-08T06:01:10.591Z,3.53
2018-12-08T06:06:13.814Z,3.60
2018-12-08T06:11:17.035Z,4.03
2018-12-08T06:16:20.243Z,3.40
2018-12-08T06:21:33.581Z,3.40
2018-12-08T06:26:43.812Z,3.00
2018-12-08T06:31:47.660Z,3.40
2018-12-08T06:36:51.438Z,2.93
2018-12-08T06:41:54.602Z,3.07
2018-12-08T06:46:57.747Z,3.37
2018-12-08T06:52:01.018Z,3.60
2018-12-08T06:57:04.222Z,3.43
2018-12-08T07:02:07.459Z,3.17
2018-12-08T07:07:10.742Z,2.97
2018-12-08T07:12:13.973Z,2.90
2018-12-08T07:17:17.195Z,2.37
2018-12-08T07:22:20.476Z,3.10
2018-12-08T07:27:23.791Z,2.73
2018-12-08T07:32:27.067Z,2.80
2018-12-08T07:37:30.264Z,3.13
2018-12-08T07:42:33.521Z,2.70
2018-12-08T07:47:36.799Z,2.90
2018-12-08T07:52:39.994Z,3.07
2018-12-08T07:57:43.244Z,2.73
2018-12-08T08:02:46.705Z,2.87
2018-12-08T08:07:49.981Z,3.67
2018-12-08T08:12:53.269Z,3.93
2018-12-08T08:17:57.473Z,3.37
2018-12-08T08:23:00.961Z,3.93
2018-12-08T08:28:04.204Z,3.50
2018-12-08T08:33:07.463Z,3.80
2018-12-08T08:38:11.000Z,3.13
2018-12-08T08:43:14.223Z,4.43
2018-12-08T08:48:17.709Z,4.03
2018-12-08T08:53:21.265Z,4.70
2018-12-08T08:58:24.665Z,5.03
2018-12-08T09:03:27.853Z,4.97
2018-12-08T09:08:31.431Z,5.20
2018-12-08T09:13:34.985Z,5.37
2018-12-08T09:18:38.286Z,4.67
2018-12-08T09:23:41.547Z,5.10
2018-12-08T09:28:44.855Z,5.47
2018-12-08T09:33:48.082Z,4.80
2018-12-08T09:38:51.286Z,5.50
2018-12-08T09:43:54.463Z,6.93
2018-12-08T09:48:57.758Z,6.27
2018-12-08T09:54:01.315Z,6.73
2018-12-08T09:59:04.576Z,5.97
2018-12-08T10:04:08.216Z,5.30
2018-12-08T10:09:11.496Z,5.97
2018-12-08T10:14:14.838Z,5.57
2018-12-08T10:19:18.133Z,5.47
2018-12-08T10:24:21.673Z,5.77
2018-12-08T10:29:24.995Z,6.20
2018-12-08T10:34:28.317Z,5.67
2018-12-08T10:39:31.695Z,5.20
2018-12-08T10:44:34.939Z,5.33
2018-12-08T10:49:38.478Z,5.40
2018-12-08T10:54:42.015Z,5.73
2018-12-08T10:59:45.210Z,5.90
2018-12-08T11:04:48.599Z,6.07
2018-12-08T11:09:51.932Z,5.10
2018-12-08T11:15:00.659Z,5.10
2018-12-08T11:20:00.902Z,5.20
2018-12-08T11:25:04.374Z,5.27
2018-12-08T11:30:07.677Z,4.40
2018-12-08T11:35:10.955Z,5.63
2018-12-08T11:40:14.332Z,4.20
2018-12-08T11:45:17.562Z,4.53
2018-12-08T11:50:20.811Z,4.47
2018-12-08T11:55:30.199Z,4.67
2018-12-08T12:00:29.711Z,3.80
2018-12-08T12:05:32.947Z,5.20
2018-12-08T12:10:36.336Z,5.30
2018-12-08T12:15:39.622Z,5.63
2018-12-08T12:20:42.854Z,5.47
2018-12-08T12:25:46.267Z,5.33
2018-12-08T12:30:49.558Z,4.93
2018-12-08T12:35:52.832Z,4.13
2018-12-08T12:40:56.221Z,4.50
2018-12-08T12:45:59.597Z,3.73
2018-12-08T12:51:02.824Z,3.67
2018-12-08T12:56:06.196Z,4.43
2018-12-08T13:01:09.536Z,4.57
2018-12-08T13:06:14.139Z,5.00
2018-12-08T13:11:18.241Z,5.57
2018-12-08T13:16:22.195Z,3.27
2018-12-08T13:21:25.783Z,3.90
2018-12-08T13:26:29.133Z,4.20
2018-12-08T13:31:32.464Z,3.53
2018-12-08T13:36:35.894Z,3.97
2018-12-08T13:41:39.251Z,2.70
2018-12-08T13:46:42.825Z,3.77
2018-12-08T13:51:46.164Z,3.60
2018-12-08T13:56:49.467Z,4.00
2018-12-08T14:01:52.791Z,3.67
2018-12-08T14:06:56.045Z,3.60
2018-12-08T14:12:00.678Z,3.70
2018-12-08T14:17:04.421Z,3.50
2018-12-08T14:22:07.718Z,3.00
2018-12-08T14:27:10.989Z,3.00
2018-12-08T14:32:14.595Z,3.37
2018-12-08T14:37:18.011Z,2.90
2018-12-08T14:42:21.527Z,3.10
2018-12-08T14:47:24.881Z,3.10
2018-12-08T14:52:28.769Z,3.13
2018-12-08T14:57:32.064Z,3.60
2018-12-08T15:02:35.971Z,3.50
2018-12-08T15:07:39.304Z,3.50
2018-12-08T15:12:42.616Z,2.60
2018-12-08T15:17:46.378Z,2.43
2018-12-08T15:22:49.785Z,3.10
2018-12-08T15:27:53.262Z,2.60
2018-12-08T15:32:56.559Z,3.13
2018-12-08T15:38:00.054Z,2.87
2018-12-08T15:43:03.616Z,3.20
2018-12-08T15:48:07.111Z,3.23
2018-12-08T15:53:10.412Z,2.53
2018-12-08T15:58:14.402Z,2.60
2018-12-08T16:03:18.638Z,2.60
2018-12-08T16:08:21.903Z,2.73
2018-12-08T16:13:25.258Z,2.50
2018-12-08T16:18:28.777Z,2.40
2018-12-08T16:23:32.087Z,2.10
2018-12-08T16:28:35.364Z,2.13
2018-12-08T16:33:39.278Z,2.43
2018-12-08T16:38:42.627Z,2.73
2018-12-08T16:43:45.961Z,2.63
2018-12-08T16:48:49.437Z,2.40
2018-12-08T16:53:52.936Z,1.90
2018-12-08T16:58:56.401Z,2.00
2018-12-08T17:03:59.675Z,1.50
2018-12-08T17:09:03.067Z,2.30
2018-12-08T17:14:06.387Z,1.73
2018-12-08T17:19:09.695Z,2.13
2018-12-08T17:24:13.604Z,2.27
2018-12-08T17:29:17.099Z,2.00
2018-12-08T17:34:20.387Z,2.10
2018-12-08T17:39:23.809Z,2.03
2018-12-08T17:44:27.036Z,1.63
2018-12-08T17:49:30.531Z,1.60
2018-12-08T17:54:33.805Z,2.30
2018-12-08T17:59:37.147Z,1.60
2018-12-08T18:04:40.504Z,2.13
2018-12-08T18:09:44.005Z,1.93
2018-12-08T18:14:47.286Z,1.80
2018-12-08T18:19:50.530Z,1.70
2018-12-08T18:25:04.179Z,2.10
2018-12-08T18:30:12.038Z,2.23
2018-12-08T18:35:15.317Z,2.07
2018-12-08T18:40:18.586Z,1.80
2018-12-08T18:45:21.806Z,1.40
2018-12-08T18:50:25.171Z,1.57
2018-12-08T18:55:28.474Z,1.90
2018-12-08T19:00:31.782Z,1.50
2018-12-08T19:05:34.981Z,1.73
2018-12-08T19:10:38.582Z,1.50
2018-12-08T19:15:41.857Z,2.57
2018-12-08T19:20:45.092Z,1.70
2018-12-08T19:25:48.537Z,1.60
2018-12-08T19:30:51.815Z,1.67
2018-12-08T19:35:55.214Z,1.77
2018-12-08T19:40:58.489Z,1.93
2018-12-08T19:46:02.177Z,1.83
2018-12-08T19:51:05.437Z,1.90
2018-12-08T19:56:08.809Z,1.60
2018-12-08T20:01:12.113Z,2.00
2018-12-08T20:06:15.608Z,1.63
2018-12-08T20:11:18.942Z,1.80
2018-12-08T20:16:22.356Z,2.17
2018-12-08T20:21:25.615Z,1.50
2018-12-08T20:26:29.743Z,1.70
2018-12-08T20:31:33.021Z,1.33
2018-12-08T20:36:36.320Z,2.03
2018-12-08T20:41:39.598Z,2.27
2018-12-08T20:46:43.246Z,2.53
2018-12-08T20:51:46.500Z,2.40
2018-12-08T20:56:49.918Z,4.10
2018-12-08T21:01:53.514Z,1.83
2018-12-08T21:06:56.902Z,2.40
2018-12-08T21:12:00.342Z,2.20
2018-12-08T21:17:03.915Z,2.20
2018-12-08T21:22:07.710Z,2.33
2018-12-08T21:27:11.130Z,2.47
2018-12-08T21:32:15.009Z,2.30
2018-12-08T21:37:22.050Z,2.33
2018-12-08T21:42:25.520Z,2.33
2018-12-08T21:47:29.755Z,2.80
2018-12-08T21:52:35.994Z,2.30
2018-12-08T21:57:39.549Z,2.30
2018-12-08T22:02:42.926Z,2.40
2018-12-08T22:07:46.332Z,2.80
2018-12-08T22:12:49.762Z,2.33
2018-12-08T22:17:53.517Z,1.70
2018-12-08T22:22:56.783Z,2.73
2018-12-08T22:28:00.119Z,2.00
2018-12-08T22:33:03.374Z,3.90
2018-12-08T22:38:06.671Z,4.10
2018-12-08T22:43:10.185Z,4.33
2018-12-08T22:48:14.587Z,5.70
2018-12-08T22:53:17.838Z,3.80
2018-12-08T22:58:22.466Z,3.77
2018-12-08T23:03:25.714Z,3.70
2018-12-08T23:08:29.007Z,4.83
2018-12-08T23:13:32.247Z,3.87
2018-12-08T23:18:35.478Z,3.17
2018-12-08T23:23:38.754Z,3.50
2018-12-08T23:28:42.031Z,3.50
2018-12-08T23:33:45.285Z,3.37
2018-12-08T23:38:48.703Z,2.90
2018-12-08T23:43:52.083Z,3.07
2018-12-08T23:48:55.485Z,3.40
2018-12-08T23:53:58.668Z,3.47
2018-12-08T23:59:02.371Z,3.80
